createdAt,value
2023-04-24T06:54:11.777Z,98719.4
2023-04-24T06:59:45.533Z,98723.9
2023-04-24T07:05:21.143Z,98721.9
2023-04-24T07:10:57.256Z,98719.3
2023-04-24T07:16:33.959Z,98727.5
2023-04-24T07:22:09.692Z,98728.8
2023-04-24T07:27:45.523Z,98727.8
2023-04-24T07:33:23.412Z,98725.5
2023-04-24T07:38:58.865Z,98720.1
2023-04-24T07:44:36.190Z,98714.3
2023-04-24T07:50:12.243Z,98703.5
2023-04-24T07:55:48.526Z,98701.9
2023-04-24T08:01:23.639Z,98699
2023-04-24T08:06:59.239Z,98691.4
2023-04-24T08:12:35.427Z,98692.1
2023-04-24T08:18:11.474Z,98694.5
2023-04-24T08:23:47.709Z,98693
2023-04-24T08:29:24.715Z,98683.5
2023-04-24T08:35:01.360Z,98676.7
2023-04-24T08:40:38.210Z,98673.3
2023-04-24T08:46:14.299Z,98676.9
2023-04-24T08:52:11.597Z,98686.5
2023-04-24T08:57:45.191Z,98690.3
2023-04-24T09:03:21.447Z,98688.4
2023-04-24T09:08:59.164Z,98689.1
2023-04-24T09:14:35.016Z,98686
2023-04-24T09:20:10.489Z,98688.9
2023-04-24T09:25:46.546Z,98685.4
2023-04-24T09:31:22.721Z,98682.5
2023-04-24T09:37:00.104Z,98678.8
2023-04-24T09:42:35.419Z,98680.7
2023-04-24T09:48:11.500Z,98670.8
2023-04-24T09:54:09.673Z,98670.6
2023-04-24T09:59:43.507Z,98669.9
2023-04-24T10:05:21.837Z,98672.5
2023-04-24T10:10:58.541Z,98671.9
2023-04-24T10:16:35.607Z,98672.3
2023-04-24T10:22:11.039Z,98668.5
2023-04-24T10:27:46.274Z,98665.8
2023-04-24T10:33:21.565Z,98666.7
2023-04-24T10:38:56.990Z,98672.5
2023-04-24T10:44:32.262Z,98670.9
2023-04-24T10:50:08.366Z,98660.2
2023-04-24T10:55:44.124Z,98648.8
2023-04-24T11:01:19.350Z,98646.8
2023-04-24T11:06:56.831Z,98641.7
2023-04-24T11:12:32.792Z,98635.9
2023-04-24T11:18:09.384Z,98629.5
2023-04-24T11:23:44.781Z,98635
2023-04-24T11:29:25.848Z,98634.3
2023-04-24T11:35:03.147Z,98631
2023-04-24T11:40:40.161Z,98627.4
2023-04-24T11:46:18.124Z,98622
2023-04-24T11:52:15.166Z,98619.3
2023-04-24T11:57:49.412Z,98611.1
2023-04-24T12:03:25.599Z,98607.4
2023-04-24T12:09:18.836Z,98601.9
2023-04-24T12:14:55.791Z,98594.5
2023-04-24T12:20:34.564Z,98598
2023-04-24T12:26:09.993Z,98596.5
2023-04-24T12:31:46.224Z,98594.1
2023-04-24T12:37:22.862Z,98592.9
2023-04-24T12:42:59.256Z,98589.2
2023-04-24T12:48:44.701Z,98589.7
2023-04-24T12:54:22.510Z,98581.6
2023-04-24T12:59:58.852Z,98576.6
2023-04-24T13:05:34.557Z,98576.6
2023-04-24T13:11:10.969Z,98582.6
2023-04-24T13:16:47.115Z,98579.7
2023-04-24T13:22:23.031Z,98577.9
2023-04-24T13:27:57.744Z,98584.8
2023-04-24T13:33:33.506Z,98573.3
2023-04-24T13:39:08.329Z,98575
2023-04-24T13:44:43.833Z,98572.6
2023-04-24T13:50:18.716Z,98564.8
2023-04-24T13:55:56.374Z,98559.8
2023-04-24T14:01:33.315Z,98558.8
2023-04-24T14:07:08.943Z,98555.6
2023-04-24T14:12:46.100Z,98553.4
2023-04-24T14:18:21.233Z,98544.4
2023-04-24T14:23:56.606Z,98542
2023-04-24T14:29:35.615Z,98533.1
2023-04-24T14:35:14.409Z,98531.4
2023-04-24T14:41:08.531Z,98529.5
2023-04-24T14:46:50.283Z,98523.4
2023-04-24T14:52:48.228Z,98528.8
2023-04-24T14:58:21.867Z,98529.2
2023-04-24T15:04:00.537Z,98523
2023-04-24T15:09:38.625Z,98519.6
2023-04-24T15:15:16.277Z,98516.3
2023-04-24T15:20:52.381Z,98500.9
2023-04-24T15:26:28.711Z,98504.6
2023-04-24T15:32:06.599Z,98502.2
2023-04-24T15:37:46.117Z,98506.9
2023-04-24T15:43:22.063Z,98514.8
2023-04-24T15:48:57.527Z,98517.6
2023-04-24T15:54:32.720Z,98512.8
2023-04-24T16:00:08.466Z,98504.4
2023-04-24T16:05:46.831Z,98504
2023-04-24T16:11:21.928Z,98523.2
2023-04-24T16:16:57.505Z,98524.3
2023-04-24T16:22:32.922Z,98542
2023-04-24T16:28:09.070Z,98547.4
2023-04-24T16:33:46.508Z,98558.3
2023-04-24T16:39:21.673Z,98562.2
2023-04-24T16:44:57.897Z,98569.4
2023-04-24T16:50:33.824Z,98567.1
2023-04-24T16:56:09.279Z,98566.2
2023-04-24T17:01:44.572Z,98580.8
2023-04-24T17:07:19.670Z,98603.5
2023-04-24T17:12:54.882Z,98609.4
2023-04-24T17:18:30.402Z,98624.1
2023-04-24T17:24:05.473Z,98627
2023-04-24T17:29:42.412Z,98616.2
2023-04-24T17:35:23.738Z,98617.2
2023-04-24T17:41:01.437Z,98628.6
2023-04-24T17:46:38.170Z,98626.2
2023-04-24T17:52:13.948Z,98617.6
2023-04-24T17:57:49.471Z,98616.7
2023-04-24T18:03:26.186Z,98610.9
2023-04-24T18:09:04.036Z,98591.3
2023-04-24T18:14:39.461Z,98584.8
2023-04-24T18:20:15.538Z,98584.8
2023-04-24T18:25:52.306Z,98596.4
2023-04-24T18:31:27.713Z,98597.2
2023-04-24T18:37:03.881Z,98588.4
2023-04-24T18:42:39.910Z,98593
2023-04-24T18:48:17.186Z,98587.4
2023-04-24T18:53:52.266Z,98583.1
2023-04-24T18:59:28.964Z,98584.5
2023-04-24T19:05:08.494Z,98585.7
2023-04-24T19:10:43.675Z,98593.5
2023-04-24T19:16:19.510Z,98596.2
2023-04-24T19:21:56.087Z,98600.5
2023-04-24T19:27:31.913Z,98611.1
2023-04-24T19:33:07.435Z,98624.8
2023-04-24T19:38:43.152Z,98632.2
2023-04-24T19:44:18.615Z,98633
2023-04-24T19:49:55.342Z,98639.8
2023-04-24T19:55:32.941Z,98654.4
2023-04-24T20:01:12.431Z,98671.5
2023-04-24T20:06:47.894Z,98678.1
2023-04-24T20:12:23.839Z,98684.2
2023-04-24T20:18:00.063Z,98685
2023-04-24T20:23:35.829Z,98693.3
2023-04-24T20:29:12.199Z,98699
2023-04-24T20:34:48.909Z,98703.2
